KAZO/AZO METAR and TAF weather

Enter ICAO airport designator
Station Type Date Time Source
KAZO METAR 2019/04/25 20:53 UTC NOAA

KAZO 252053Z 18005KT 10SM SCT038 18/11 A2971 RMK AO2 SLP059 T01830106 58021


Station Type Date Time Source
KAZO Decoded METAR 2019/04/25 20:53 UTC NOAA

KALAMAZOO/BATTLE CREEK AIRPORT, MI, United States (KAZO) 42-14N 085-33W 272M
Apr 25, 2019 - 04:53 PM EDT / 2019.04.25 2053 UTC
Wind: from the S (180 degrees) at 6 MPH (5 KT):0
Visibility: 10 mile(s):0
Sky conditions: partly cloudy
Temperature: 64.9 F (18.3 C)
Dew Point: 51.1 F (10.6 C)
Relative Humidity: 60%
Pressure (altimeter): 29.71 in. Hg (1006 hPa)
Pressure tendency: 0.06 inches (2.1 hPa) lower than three hours ago
ob: KAZO 252053Z 18005KT 10SM SCT038 18/11 A2971 RMK AO2 SLP059 T01830106 58021
cycle: 21

Station Type Date Time Source
KAZO TAF 2019/04/25 21:39 UTC NOAA

TAF
AMD KAZO 252037Z 2521/2618 13004KT P6SM SCT025
FM260100 01003KT P6SM VCSH BKN040
FM260800 33013KT P6SM -SHRA OVC025
FM261400 32015G25KT P6SM FEW050

Example: see airport list